createdAt,value
2023-05-05T00:00:14.943Z,973.68
2023-05-05T00:01:14.890Z,973.63
2023-05-05T00:02:14.680Z,973.63
2023-05-05T00:03:14.595Z,973.64
2023-05-05T00:04:15.017Z,973.59
2023-05-05T00:05:14.623Z,973.59
2023-05-05T00:06:14.570Z,973.59
2023-05-05T00:07:15.346Z,973.63
2023-05-05T00:08:14.189Z,973.60
2023-05-05T00:09:14.637Z,973.63
2023-05-05T00:10:14.250Z,973.57
2023-05-05T00:11:14.301Z,973.54
2023-05-05T00:12:14.096Z,973.53
2023-05-05T00:13:14.435Z,973.52
2023-05-05T00:14:14.839Z,973.55
2023-05-05T00:15:15.779Z,973.49
2023-05-05T00:16:14.653Z,973.51
2023-05-05T00:17:14.669Z,973.53
2023-05-05T00:18:14.499Z,973.44
2023-05-05T00:19:14.164Z,973.52
2023-05-05T00:20:14.518Z,973.48
2023-05-05T00:21:14.318Z,973.48
2023-05-05T00:22:15.170Z,973.53
2023-05-05T00:23:14.598Z,973.43
2023-05-05T00:24:14.530Z,973.47
2023-05-05T00:25:17.068Z,973.47
2023-05-05T00:26:14.200Z,973.47
2023-05-05T00:27:14.050Z,973.40
2023-05-05T00:28:14.848Z,973.40
2023-05-05T00:29:13.984Z,973.37
2023-05-05T00:32:53.395Z,973.37
2023-05-05T00:33:53.252Z,973.33
2023-05-05T00:34:53.220Z,973.36
2023-05-05T00:35:53.210Z,973.27
2023-05-05T00:36:53.164Z,973.29
2023-05-05T00:37:53.281Z,973.31
2023-05-05T00:38:53.149Z,973.32
2023-05-05T00:39:53.793Z,973.26
2023-05-05T00:40:53.284Z,973.23
2023-05-05T00:41:53.103Z,973.26
2023-05-05T00:44:15.938Z,973.20
2023-05-05T00:45:15.842Z,973.22
2023-05-05T00:46:15.814Z,973.21
2023-05-05T00:47:15.749Z,973.19
2023-05-05T00:48:15.729Z,973.16
2023-05-05T00:49:15.704Z,973.14
2023-05-05T00:50:15.688Z,973.19
2023-05-05T00:51:15.646Z,973.16
2023-05-05T00:52:15.619Z,973.14
2023-05-05T00:53:15.605Z,973.16
2023-05-05T00:54:15.601Z,973.14
2023-05-05T00:55:15.599Z,973.17
2023-05-05T00:56:15.567Z,973.11
2023-05-05T00:57:15.552Z,973.15
2023-05-05T00:58:15.547Z,973.18
2023-05-05T00:59:15.545Z,973.11
2023-05-05T01:00:15.548Z,973.10
2023-05-05T01:01:15.617Z,973.11
2023-05-05T01:02:15.494Z,973.13
2023-05-05T01:03:15.639Z,973.13
2023-05-05T01:04:15.463Z,973.12
2023-05-05T01:05:15.486Z,973.07
2023-05-05T01:06:15.452Z,973.09
2023-05-05T01:07:15.431Z,973.10
2023-05-05T01:08:15.445Z,973.05
2023-05-05T01:09:15.401Z,972.98
2023-05-05T01:10:19.806Z,973.01
2023-05-05T01:11:15.388Z,973.02
2023-05-05T01:12:15.380Z,973.03
2023-05-05T01:13:15.406Z,973.03
2023-05-05T01:14:15.341Z,973.06
2023-05-05T01:15:15.326Z,973.07
2023-05-05T01:16:15.430Z,973.05
2023-05-05T01:17:15.310Z,973.07
2023-05-05T01:18:15.298Z,973.04
2023-05-05T01:19:15.282Z,973.08
2023-05-05T01:20:15.272Z,973.05
2023-05-05T01:21:15.279Z,973.07
2023-05-05T01:22:15.249Z,973.08
2023-05-05T01:23:15.232Z,973.11
2023-05-05T01:24:15.233Z,973.06
2023-05-05T01:25:15.210Z,972.99
2023-05-05T01:26:15.248Z,972.98
2023-05-05T01:27:15.186Z,973.02
2023-05-05T01:28:15.197Z,972.97
2023-05-05T01:29:15.165Z,973.02
2023-05-05T01:30:15.154Z,972.97
2023-05-05T01:31:15.160Z,972.98
2023-05-05T01:32:15.150Z,972.95
2023-05-05T01:33:15.113Z,972.98
2023-05-05T01:34:15.107Z,972.94
2023-05-05T01:35:15.097Z,972.96
2023-05-05T01:36:15.072Z,972.95
2023-05-05T01:38:43.793Z,972.88
2023-05-05T01:39:43.769Z,973.00
2023-05-05T01:40:56.171Z,972.91
2023-05-05T01:41:44.160Z,972.96
2023-05-05T01:42:44.049Z,972.94
2023-05-05T01:43:43.704Z,972.93
2023-05-05T01:44:43.764Z,972.94
2023-05-05T01:45:43.677Z,972.89
2023-05-05T01:46:43.684Z,972.93
2023-05-05T01:47:53.886Z,972.90
2023-05-05T01:48:43.751Z,972.93
2023-05-05T01:49:55.022Z,972.91
2023-05-05T01:50:46.181Z,972.94
2023-05-05T01:51:44.917Z,972.91
2023-05-05T01:52:45.030Z,972.88
2023-05-05T01:53:45.028Z,972.91
2023-05-05T01:54:44.876Z,972.87
2023-05-05T01:55:44.806Z,972.85
2023-05-05T01:56:44.851Z,972.90
2023-05-05T01:57:45.582Z,972.92
2023-05-05T01:58:45.039Z,972.87
2023-05-05T01:59:44.938Z,972.92
2023-05-05T02:00:44.823Z,972.88
2023-05-05T02:01:44.940Z,972.86
2023-05-05T02:02:45.003Z,972.91
2023-05-05T02:03:44.961Z,972.83
2023-05-05T02:04:45.045Z,972.89
2023-05-05T02:05:44.693Z,972.80
2023-05-05T02:06:44.719Z,972.81
2023-05-05T02:07:44.690Z,972.83
2023-05-05T02:08:44.657Z,972.85
2023-05-05T02:09:44.705Z,972.81
2023-05-05T02:10:44.698Z,972.82
2023-05-05T02:11:44.763Z,972.85
2023-05-05T02:12:44.792Z,972.83
2023-05-05T02:13:44.717Z,972.84
2023-05-05T02:14:44.873Z,972.85
2023-05-05T02:15:44.527Z,972.81
2023-05-05T02:16:44.895Z,972.84
2023-05-05T02:17:44.832Z,972.87
2023-05-05T02:18:44.579Z,972.78
2023-05-05T02:19:44.597Z,972.77
2023-05-05T02:20:44.461Z,972.71
2023-05-05T02:21:44.447Z,972.76
2023-05-05T02:23:07.008Z,972.74
2023-05-05T02:23:45.378Z,972.74
2023-05-05T02:24:44.646Z,972.72
2023-05-05T02:25:44.379Z,972.73
2023-05-05T02:26:44.357Z,972.71
2023-05-05T02:27:44.314Z,972.68
2023-05-05T02:28:44.267Z,972.74
2023-05-05T02:29:44.315Z,972.68
2023-05-05T02:30:44.377Z,972.70
2023-05-05T02:31:44.348Z,972.66
2023-05-05T02:32:44.251Z,972.65
2023-05-05T02:33:44.254Z,972.63
2023-05-05T02:34:44.263Z,972.74
2023-05-05T02:35:44.136Z,972.74
2023-05-05T02:36:44.171Z,972.78
2023-05-05T02:37:44.158Z,972.79
2023-05-05T02:38:44.209Z,972.71
2023-05-05T02:39:44.122Z,972.70
2023-05-05T02:40:44.189Z,972.72
2023-05-05T02:41:44.148Z,972.67
2023-05-05T02:42:44.110Z,972.71
2023-05-05T02:43:45.032Z,972.74
2023-05-05T02:44:44.021Z,972.72
2023-05-05T02:45:44.080Z,972.72
2023-05-05T02:46:44.076Z,972.69
2023-05-05T02:47:44.045Z,972.64
2023-05-05T02:48:43.996Z,972.71
2023-05-05T02:52:01.010Z,972.66
2023-05-05T02:53:01.204Z,972.62
2023-05-05T02:54:01.157Z,972.68
2023-05-05T02:55:00.805Z,972.74
2023-05-05T02:56:00.719Z,972.74
2023-05-05T02:57:00.685Z,972.72
2023-05-05T02:58:00.725Z,972.69
2023-05-05T03:00:10.835Z,972.63
2023-05-05T03:01:10.759Z,972.66
2023-05-05T03:02:10.760Z,972.66
2023-05-05T03:03:10.765Z,972.63
2023-05-05T03:04:10.691Z,972.59
2023-05-05T03:05:21.495Z,972.56
2023-05-05T03:06:11.032Z,972.57
2023-05-05T03:07:10.851Z,972.56
2023-05-05T03:08:10.768Z,972.57
2023-05-05T03:09:10.612Z,972.64
2023-05-05T03:10:10.792Z,972.53
2023-05-05T03:11:20.831Z,972.60
2023-05-05T03:12:10.665Z,972.55
2023-05-05T03:13:10.746Z,972.59
2023-05-05T03:14:10.737Z,972.63
2023-05-05T03:15:10.821Z,972.59
2023-05-05T03:16:10.746Z,972.66
2023-05-05T03:17:20.763Z,972.55
2023-05-05T03:18:11.222Z,972.50
2023-05-05T03:19:10.656Z,972.56
2023-05-05T03:20:10.511Z,972.51
2023-05-05T03:21:10.527Z,972.51
2023-05-05T03:22:10.463Z,972.47
2023-05-05T03:23:20.756Z,972.49
2023-05-05T03:24:10.522Z,972.45
2023-05-05T03:25:10.528Z,972.44
2023-05-05T03:26:10.400Z,972.43
2023-05-05T03:27:10.381Z,972.39
2023-05-05T03:28:10.421Z,972.38
2023-05-05T03:29:20.596Z,972.44
2023-05-05T03:30:10.638Z,972.38
2023-05-05T03:31:10.506Z,972.42
2023-05-05T03:32:10.484Z,972.45
2023-05-05T03:33:10.343Z,972.49
2023-05-05T03:34:10.335Z,972.49
2023-05-05T03:35:20.487Z,972.49
2023-05-05T03:36:10.355Z,972.51
2023-05-05T03:37:10.390Z,972.45
2023-05-05T03:38:10.230Z,972.52
2023-05-05T03:39:10.237Z,972.48
2023-05-05T03:40:10.406Z,972.53
2023-05-05T03:41:20.559Z,972.54
2023-05-05T03:42:10.358Z,972.52
2023-05-05T03:43:10.254Z,972.50
2023-05-05T03:44:10.194Z,972.48
2023-05-05T03:45:10.320Z,972.48
2023-05-05T03:46:10.169Z,972.54
2023-05-05T03:47:20.332Z,972.54
2023-05-05T03:48:10.186Z,972.57
2023-05-05T03:49:10.135Z,972.56
2023-05-05T03:50:10.262Z,972.56
2023-05-05T03:51:10.073Z,972.56
2023-05-05T03:52:10.143Z,972.58
2023-05-05T03:53:20.275Z,972.53
2023-05-05T03:54:10.200Z,972.60
2023-05-05T03:55:10.166Z,972.60
2023-05-05T03:56:10.131Z,972.53
2023-05-05T03:57:10.056Z,972.58
2023-05-05T03:58:09.982Z,972.58
2023-05-05T03:59:20.366Z,972.56
2023-05-05T04:00:10.047Z,972.56
2023-05-05T04:01:10.116Z,972.53
2023-05-05T04:02:10.070Z,972.54
2023-05-05T04:03:10.075Z,972.51
2023-05-05T04:04:09.991Z,972.50
2023-05-05T04:05:20.217Z,972.50
2023-05-05T04:06:10.044Z,972.51
2023-05-05T04:07:10.070Z,972.57
2023-05-05T04:08:10.004Z,972.58
2023-05-05T04:09:09.897Z,972.61
2023-05-05T04:10:10.048Z,972.65
2023-05-05T04:11:20.057Z,972.66
2023-05-05T04:12:09.993Z,972.68
2023-05-05T04:13:09.970Z,972.64
2023-05-05T04:14:09.823Z,972.66
2023-05-05T04:15:09.766Z,972.64
2023-05-05T04:16:09.800Z,972.62
2023-05-05T04:17:20.173Z,972.71
2023-05-05T04:18:10.033Z,972.66
2023-05-05T04:19:09.815Z,972.69
2023-05-05T04:20:09.987Z,972.67
2023-05-05T04:21:09.745Z,972.68
2023-05-05T04:22:09.801Z,972.68
2023-05-05T04:23:20.083Z,972.74
2023-05-05T04:24:09.793Z,972.72
2023-05-05T04:25:09.787Z,972.74
2023-05-05T04:26:09.774Z,972.76
2023-05-05T04:27:09.607Z,972.77
2023-05-05T04:28:09.716Z,972.72
2023-05-05T04:29:19.867Z,972.78
2023-05-05T04:30:09.829Z,972.71
2023-05-05T04:31:09.665Z,972.72
2023-05-05T04:32:18.949Z,972.67
2023-05-05T04:33:10.130Z,972.77
2023-05-05T04:34:09.667Z,972.76
2023-05-05T04:35:19.705Z,972.73
2023-05-05T04:36:09.668Z,972.71
2023-05-05T04:39:24.492Z,972.78
2023-05-05T04:40:24.683Z,972.76
2023-05-05T04:41:24.451Z,972.78
2023-05-05T04:42:24.370Z,972.75
2023-05-05T04:43:25.706Z,972.74
2023-05-05T04:44:25.911Z,972.72
2023-05-05T04:45:25.851Z,972.74
2023-05-05T04:46:25.920Z,972.76
2023-05-05T04:47:25.712Z,972.75
2023-05-05T04:48:25.617Z,972.78
2023-05-05T04:49:25.708Z,972.83
2023-05-05T04:50:25.652Z,972.79
2023-05-05T04:51:25.818Z,972.78
2023-05-05T04:52:25.692Z,972.76
2023-05-05T04:53:25.674Z,972.75
2023-05-05T04:54:25.671Z,972.67
2023-05-05T04:55:25.640Z,972.78
2023-05-05T04:56:25.590Z,972.79
2023-05-05T04:57:25.831Z,972.82
2023-05-05T04:58:25.601Z,972.76
2023-05-05T04:59:25.356Z,972.77
2023-05-05T05:00:26.089Z,972.80
2023-05-05T05:01:25.416Z,972.80
2023-05-05T05:02:25.445Z,972.83
2023-05-05T05:03:25.386Z,972.83
2023-05-05T05:04:25.275Z,972.84
2023-05-05T05:05:25.292Z,972.87
2023-05-05T05:06:25.283Z,972.89
2023-05-05T05:07:25.215Z,972.90
2023-05-05T05:08:25.167Z,972.87
2023-05-05T05:09:25.179Z,972.85
2023-05-05T05:10:25.223Z,972.84
2023-05-05T05:11:25.317Z,972.87
2023-05-05T05:12:25.241Z,972.92
2023-05-05T05:13:25.417Z,972.93
2023-05-05T05:14:25.303Z,972.97
2023-05-05T05:15:25.153Z,972.89
2023-05-05T05:16:25.234Z,972.96
2023-05-05T05:17:25.162Z,972.91
2023-05-05T05:18:25.174Z,972.92
2023-05-05T05:19:25.150Z,972.94
2023-05-05T05:20:25.203Z,972.84
2023-05-05T05:21:25.222Z,972.84
2023-05-05T05:22:25.181Z,972.80
2023-05-05T05:23:25.116Z,972.74
2023-05-05T05:24:25.128Z,972.78
2023-05-05T05:25:25.049Z,972.79
2023-05-05T05:26:25.097Z,972.82
2023-05-05T05:27:25.092Z,972.88
2023-05-05T05:28:25.151Z,972.90
2023-05-05T05:29:25.064Z,972.83
2023-05-05T05:30:25.025Z,972.88
2023-05-05T05:31:25.092Z,972.94
2023-05-05T05:32:24.996Z,972.89
2023-05-05T05:33:25.242Z,972.90
2023-05-05T05:34:25.247Z,972.89
2023-05-05T05:35:25.232Z,972.99
2023-05-05T05:36:25.320Z,972.92
2023-05-05T05:37:25.247Z,973.01
2023-05-05T05:38:25.231Z,972.98
2023-05-05T05:39:25.140Z,972.95
2023-05-05T05:42:54.537Z,973.02
2023-05-05T05:43:54.875Z,972.98
2023-05-05T05:44:54.297Z,973.03
2023-05-05T05:45:54.342Z,973.06
2023-05-05T05:46:54.286Z,973.02
2023-05-05T05:47:54.338Z,973.00
2023-05-05T05:48:54.154Z,973.06
2023-05-05T05:49:54.196Z,972.95
2023-05-05T05:50:54.125Z,973.02
2023-05-05T05:51:54.172Z,973.00
2023-05-05T05:52:54.141Z,972.95
2023-05-05T05:53:55.106Z,973.05
2023-05-05T05:54:54.269Z,973.08
2023-05-05T05:55:54.136Z,973.03
2023-05-05T05:56:54.141Z,973.03
2023-05-05T05:57:54.149Z,973.03
2023-05-05T05:58:54.138Z,973.05
2023-05-05T05:59:54.052Z,973.00
2023-05-05T06:00:53.904Z,972.91
2023-05-05T06:01:54.017Z,972.99
2023-05-05T06:02:54.172Z,973.01
2023-05-05T06:03:54.113Z,973.08
2023-05-05T06:04:54.114Z,973.00
2023-05-05T06:05:54.083Z,972.98
2023-05-05T06:06:54.134Z,972.99
2023-05-05T06:10:27.357Z,973.08
2023-05-05T06:11:24.760Z,973.10
2023-05-05T06:12:24.624Z,973.05
2023-05-05T06:13:24.816Z,973.03
2023-05-05T06:14:24.551Z,973.04
2023-05-05T06:15:24.568Z,973.08
2023-05-05T06:16:24.602Z,973.06
2023-05-05T06:17:24.532Z,973.02
2023-05-05T06:18:24.553Z,973.06
2023-05-05T06:19:24.497Z,973.04
2023-05-05T06:20:24.527Z,973.07
2023-05-05T06:21:24.663Z,973.04
2023-05-05T06:22:24.473Z,973.04
2023-05-05T06:23:24.448Z,973.03
2023-05-05T06:24:24.431Z,973.04
2023-05-05T06:25:24.419Z,973.02
2023-05-05T06:26:24.447Z,973.01
2023-05-05T06:27:24.432Z,973.03
2023-05-05T06:28:24.396Z,973.02
2023-05-05T06:29:24.405Z,973.02
2023-05-05T06:30:24.365Z,972.99
2023-05-05T06:31:24.401Z,973.03
2023-05-05T06:32:24.439Z,973.01
2023-05-05T06:33:24.370Z,973.04
2023-05-05T06:34:24.323Z,973.07
2023-05-05T06:35:24.300Z,973.10
2023-05-05T06:36:24.317Z,973.14
2023-05-05T06:37:24.275Z,973.17
2023-05-05T06:38:24.287Z,973.22
2023-05-05T06:39:24.254Z,973.23
2023-05-05T06:40:24.243Z,973.15
2023-05-05T06:41:24.227Z,973.15
2023-05-05T06:42:24.238Z,973.13
2023-05-05T06:43:24.234Z,973.18
2023-05-05T06:44:24.279Z,973.19
2023-05-05T06:45:24.179Z,973.24
2023-05-05T06:46:25.313Z,973.27
2023-05-05T06:47:25.316Z,973.20
2023-05-05T06:48:25.305Z,973.25
2023-05-05T06:49:25.237Z,973.19
2023-05-05T06:50:25.248Z,973.17
2023-05-05T06:51:25.288Z,973.14
2023-05-05T06:52:25.208Z,973.10
2023-05-05T06:53:25.204Z,973.08
2023-05-05T06:54:25.214Z,973.09
2023-05-05T06:55:25.184Z,973.12
2023-05-05T06:56:25.321Z,973.12
2023-05-05T06:57:25.156Z,973.08
2023-05-05T06:58:25.231Z,973.09
2023-05-05T06:59:25.190Z,973.07
2023-05-05T07:00:25.125Z,973.08
2023-05-05T07:01:25.199Z,973.08
2023-05-05T07:02:26.843Z,973.10
2023-05-05T07:03:26.117Z,973.09
2023-05-05T07:04:25.122Z,973.10
2023-05-05T07:05:25.077Z,973.10
2023-05-05T07:06:25.047Z,973.09
2023-05-05T07:07:25.062Z,973.13
2023-05-05T07:08:25.041Z,973.08
2023-05-05T07:09:25.020Z,973.08
2023-05-05T07:10:25.058Z,973.04
2023-05-05T07:11:24.997Z,973.03
2023-05-05T07:12:24.984Z,973.00
2023-05-05T07:13:25.133Z,973.02
2023-05-05T07:14:24.962Z,972.99
2023-05-05T07:15:28.774Z,972.96
2023-05-05T07:16:25.970Z,972.99
2023-05-05T07:17:24.952Z,973.04
2023-05-05T07:18:24.923Z,973.05
2023-05-05T07:19:24.908Z,973.06
2023-05-05T07:20:24.884Z,973.09
2023-05-05T07:21:24.904Z,973.11
2023-05-05T07:22:24.858Z,973.10
2023-05-05T07:23:24.977Z,973.15
2023-05-05T07:24:24.837Z,973.07
2023-05-05T07:25:24.812Z,973.07
2023-05-05T07:26:24.861Z,973.07
2023-05-05T07:27:24.793Z,973.07
2023-05-05T07:28:24.891Z,973.03
2023-05-05T07:29:24.900Z,973.09
2023-05-05T07:30:25.102Z,973.10
2023-05-05T07:31:24.838Z,973.15
2023-05-05T07:32:24.771Z,973.14
2023-05-05T07:33:24.719Z,973.07
2023-05-05T07:34:24.728Z,973.10
2023-05-05T07:35:24.692Z,973.04
2023-05-05T07:36:24.687Z,973.08
2023-05-05T07:37:24.724Z,973.07
2023-05-05T07:38:24.685Z,973.03
2023-05-05T07:39:24.713Z,973.04
2023-05-05T07:40:24.643Z,973.03
2023-05-05T07:41:24.628Z,972.97
2023-05-05T07:42:24.665Z,973.02
2023-05-05T07:43:24.585Z,973.03
2023-05-05T07:44:24.577Z,973.00
2023-05-05T07:45:24.592Z,972.95
2023-05-05T07:46:24.564Z,972.93
2023-05-05T07:47:24.558Z,972.95
2023-05-05T07:48:24.562Z,972.96
2023-05-05T07:49:24.520Z,972.95
2023-05-05T07:50:24.525Z,973.00
2023-05-05T07:51:24.488Z,972.97
2023-05-05T07:52:36.999Z,972.93
2023-05-05T07:53:24.945Z,973.07
2023-05-05T07:54:24.469Z,973.05
2023-05-05T07:55:24.507Z,973.07
2023-05-05T07:56:24.427Z,973.16
2023-05-05T07:57:24.441Z,973.13
2023-05-05T07:58:24.411Z,973.20
2023-05-05T07:59:24.411Z,973.18
2023-05-05T08:00:24.389Z,973.20
2023-05-05T08:01:24.386Z,973.23
2023-05-05T08:02:24.786Z,973.14
2023-05-05T08:03:24.991Z,973.17
2023-05-05T08:04:24.385Z,973.20
2023-05-05T08:05:24.338Z,973.18
2023-05-05T08:06:24.313Z,973.18
2023-05-05T08:07:24.310Z,973.14
2023-05-05T08:08:24.322Z,973.10
2023-05-05T08:09:24.285Z,973.05
2023-05-05T08:10:24.328Z,973.12
2023-05-05T08:11:24.318Z,973.12
2023-05-05T08:12:24.244Z,973.16
2023-05-05T08:13:24.236Z,973.17
2023-05-05T08:14:24.261Z,973.17
2023-05-05T08:15:24.201Z,973.12
2023-05-05T08:16:24.411Z,973.12
2023-05-05T08:17:24.186Z,973.15
2023-05-05T08:18:24.166Z,973.22
2023-05-05T08:19:29.192Z,973.24
2023-05-05T08:20:24.156Z,973.23
2023-05-05T08:21:24.148Z,973.26
2023-05-05T08:22:24.125Z,973.23
2023-05-05T08:23:24.112Z,973.23
2023-05-05T08:24:24.108Z,973.24
2023-05-05T08:25:24.114Z,973.21
2023-05-05T08:26:24.073Z,973.27
2023-05-05T08:27:24.140Z,973.23
2023-05-05T08:28:24.063Z,973.23
2023-05-05T08:29:24.047Z,973.26
2023-05-05T08:30:24.109Z,973.22
2023-05-05T08:31:24.211Z,973.25
2023-05-05T08:32:27.858Z,973.31
2023-05-05T08:33:24.133Z,973.26
2023-05-05T08:34:24.503Z,973.28
2023-05-05T08:35:24.500Z,973.28
2023-05-05T08:36:23.977Z,973.26
2023-05-05T08:37:24.332Z,973.28
2023-05-05T08:38:23.944Z,973.28
2023-05-05T08:39:26.119Z,973.32
2023-05-05T08:40:23.965Z,973.31
2023-05-05T08:41:23.900Z,973.33
2023-05-05T08:42:36.265Z,973.34
2023-05-05T08:43:24.566Z,973.31
2023-05-05T08:44:23.874Z,973.36
2023-05-05T08:45:23.868Z,973.32
2023-05-05T08:46:25.386Z,973.26
2023-05-05T08:47:23.911Z,973.30
2023-05-05T08:48:24.606Z,973.30
2023-05-05T08:49:23.792Z,973.31
2023-05-05T08:50:23.919Z,973.32
2023-05-05T08:51:23.822Z,973.35
2023-05-05T08:52:23.810Z,973.35
2023-05-05T08:53:23.746Z,973.40
2023-05-05T08:54:24.569Z,973.39
2023-05-05T08:55:24.223Z,973.39
2023-05-05T08:56:24.184Z,973.42
2023-05-05T08:57:24.696Z,973.41
2023-05-05T08:58:23.861Z,973.39
2023-05-05T08:59:24.173Z,973.39
2023-05-05T09:00:24.195Z,973.43
2023-05-05T09:01:24.800Z,973.35
2023-05-05T09:02:27.313Z,973.35
2023-05-05T09:03:24.135Z,973.36
2023-05-05T09:04:23.778Z,973.38
2023-05-05T09:05:24.299Z,973.31
2023-05-05T09:06:23.769Z,973.38
2023-05-05T09:07:23.750Z,973.39
2023-05-05T09:08:23.718Z,973.36
2023-05-05T09:09:27.494Z,973.43
2023-05-05T09:10:23.569Z,973.42
2023-05-05T09:11:23.627Z,973.47
2023-05-05T09:12:23.555Z,973.48
2023-05-05T09:13:27.574Z,973.49
2023-05-05T09:14:24.535Z,973.44
2023-05-05T09:15:23.599Z,973.47
2023-05-05T09:16:23.526Z,973.49
2023-05-05T09:17:26.015Z,973.51
2023-05-05T09:18:27.039Z,973.47
2023-05-05T09:19:25.215Z,973.49
2023-05-05T09:20:26.432Z,973.48
2023-05-05T09:21:24.090Z,973.51
2023-05-05T09:22:25.377Z,973.41
2023-05-05T09:23:24.778Z,973.46
2023-05-05T09:24:24.285Z,973.45
2023-05-05T09:25:23.854Z,973.49
2023-05-05T09:26:24.317Z,973.42
2023-05-05T09:27:23.838Z,973.45
2023-05-05T09:28:23.397Z,973.44
2023-05-05T09:29:23.696Z,973.42
2023-05-05T09:30:24.132Z,973.45
2023-05-05T09:31:26.997Z,973.47
2023-05-05T09:32:23.474Z,973.37
2023-05-05T09:33:23.327Z,973.38
2023-05-05T09:34:23.283Z,973.43
2023-05-05T09:35:23.476Z,973.43
2023-05-05T09:36:23.231Z,973.46
2023-05-05T09:37:23.991Z,973.45
2023-05-05T09:38:23.229Z,973.50
2023-05-05T09:39:23.292Z,973.52
2023-05-05T09:40:24.179Z,973.45
2023-05-05T09:41:23.173Z,973.46
2023-05-05T09:42:23.357Z,973.35
2023-05-05T09:43:23.148Z,973.44
2023-05-05T09:44:23.165Z,973.42
2023-05-05T09:45:32.228Z,973.37
2023-05-05T09:46:28.180Z,973.45
2023-05-05T09:47:43.898Z,973.49
2023-05-05T09:48:32.397Z,973.49
2023-05-05T09:49:49.167Z,973.43
2023-05-05T09:50:25.178Z,973.48
2023-05-05T09:51:27.846Z,973.42
2023-05-05T09:52:24.139Z,973.41
2023-05-05T09:53:23.467Z,973.43
2023-05-05T09:54:23.106Z,973.46
2023-05-05T09:55:23.293Z,973.39
2023-05-05T09:56:23.131Z,973.38
2023-05-05T09:57:23.123Z,973.34
2023-05-05T09:58:23.245Z,973.38
2023-05-05T09:59:23.156Z,973.35
2023-05-05T10:00:23.188Z,973.28
2023-05-05T10:01:22.924Z,973.31
2023-05-05T10:02:22.902Z,973.28
2023-05-05T10:03:26.500Z,973.30
2023-05-05T10:04:23.123Z,973.28
2023-05-05T10:06:10.947Z,973.24
2023-05-05T10:06:28.240Z,973.17
2023-05-05T10:07:23.906Z,973.17
2023-05-05T10:08:22.973Z,973.24
2023-05-05T10:09:22.947Z,973.23
2023-05-05T10:13:25.397Z,973.20
2023-05-05T10:14:24.613Z,973.20
2023-05-05T10:15:24.563Z,973.18
2023-05-05T10:16:24.802Z,973.20
2023-05-05T10:17:24.600Z,973.18
2023-05-05T10:18:24.685Z,973.11
2023-05-05T10:19:24.573Z,973.13
2023-05-05T10:20:24.610Z,973.19
2023-05-05T10:21:25.719Z,973.12
2023-05-05T10:22:25.798Z,973.15
2023-05-05T10:23:25.552Z,973.12
2023-05-05T10:24:25.656Z,973.07
2023-05-05T10:25:25.559Z,973.10
2023-05-05T10:26:25.500Z,973.04
2023-05-05T10:27:25.571Z,973.04
2023-05-05T10:28:25.579Z,973.02
2023-05-05T10:29:25.651Z,973.04
2023-05-05T10:30:25.768Z,973.02
2023-05-05T10:31:26.721Z,973.06
2023-05-05T10:32:50.142Z,973.06
2023-05-05T10:33:31.045Z,973.02
2023-05-05T10:34:30.220Z,973.02
2023-05-05T10:35:37.267Z,972.96
2023-05-05T10:36:31.032Z,972.99
2023-05-05T10:37:27.770Z,972.99
2023-05-05T10:38:44.359Z,973.01
2023-05-05T10:39:25.368Z,973.02
2023-05-05T10:40:25.354Z,973.01
2023-05-05T10:41:32.541Z,973.02
2023-05-05T10:42:26.319Z,972.99
2023-05-05T12:04:58.314Z,972.86
2023-05-05T12:05:59.712Z,972.80
2023-05-05T12:06:59.458Z,972.74
2023-05-05T12:08:07.273Z,972.80
2023-05-05T12:08:59.761Z,972.76
2023-05-05T13:39:00.844Z,972.09
2023-05-05T13:40:00.929Z,972.13
2023-05-05T13:41:00.860Z,972.14
2023-05-05T13:55:04.315Z,971.86
2023-05-05T13:56:12.904Z,971.80
2023-05-05T14:01:43.408Z,971.68
2023-05-05T14:02:45.226Z,971.66
2023-05-05T14:03:43.295Z,971.68
2023-05-05T14:04:43.266Z,971.68
2023-05-05T14:05:43.212Z,971.63
2023-05-05T14:06:43.222Z,971.65
2023-05-05T14:07:43.177Z,971.65
2023-05-05T14:08:43.165Z,971.59
2023-05-05T14:09:43.208Z,971.56
2023-05-05T14:10:45.427Z,971.63
2023-05-05T14:11:43.132Z,971.59
2023-05-05T14:12:43.187Z,971.59
2023-05-05T14:13:44.262Z,971.61
2023-05-05T14:14:44.222Z,971.59
2023-05-05T14:15:44.236Z,971.62
2023-05-05T14:16:44.285Z,971.65
2023-05-05T14:17:44.275Z,971.62
2023-05-05T14:18:44.625Z,971.59
2023-05-05T14:19:44.213Z,971.61
2023-05-05T14:20:44.229Z,971.61
2023-05-05T14:21:44.288Z,971.62
2023-05-05T14:22:44.261Z,971.61
2023-05-05T14:23:44.147Z,971.66
2023-05-05T14:24:44.149Z,971.63
2023-05-05T14:25:44.135Z,971.56
2023-05-05T14:26:44.176Z,971.52
2023-05-05T14:27:45.070Z,971.48
2023-05-05T14:28:44.304Z,971.47
2023-05-05T14:29:44.076Z,971.38
2023-05-05T14:30:44.050Z,971.37
2023-05-05T14:31:44.111Z,971.35
2023-05-05T14:32:44.042Z,971.33
2023-05-05T14:33:44.014Z,971.32
2023-05-05T14:34:44.019Z,971.37
2023-05-05T14:35:44.058Z,971.37
2023-05-05T14:36:44.037Z,971.46
2023-05-05T14:37:44.160Z,971.45
2023-05-05T14:38:44.002Z,971.48
2023-05-05T14:39:44.004Z,971.52
2023-05-05T14:40:44.375Z,971.48
2023-05-05T14:41:43.951Z,971.50
2023-05-05T14:42:44.005Z,971.49
2023-05-05T14:43:43.936Z,971.48
2023-05-05T14:44:43.881Z,971.48
2023-05-05T14:45:43.942Z,971.54
2023-05-05T14:46:45.969Z,971.47
2023-05-05T14:47:44.878Z,971.47
2023-05-05T14:48:43.851Z,971.53
2023-05-05T14:49:43.921Z,971.54
2023-05-05T14:50:43.848Z,971.54
2023-05-05T14:51:43.838Z,971.65
2023-05-05T14:52:43.826Z,971.69
2023-05-05T14:53:43.855Z,971.66
2023-05-05T14:54:43.752Z,971.67
2023-05-05T14:55:43.786Z,971.70
2023-05-05T14:56:43.693Z,971.69
2023-05-05T14:57:43.785Z,971.77
2023-05-05T14:58:43.875Z,971.71
2023-05-05T14:59:43.782Z,971.78
2023-05-05T15:00:43.768Z,971.76
2023-05-05T15:01:43.710Z,971.73
2023-05-05T15:02:45.021Z,971.80
2023-05-05T15:03:43.948Z,971.80
2023-05-05T15:04:43.581Z,971.77
2023-05-05T15:05:43.685Z,971.87
2023-05-05T15:06:43.568Z,971.90
2023-05-05T15:07:43.567Z,971.92
2023-05-05T15:08:43.572Z,971.98
2023-05-05T15:09:43.888Z,972.08
2023-05-05T15:10:43.514Z,972.05
2023-05-05T15:11:43.533Z,972.08
2023-05-05T15:12:43.592Z,972.18
2023-05-05T15:13:43.511Z,972.15
2023-05-05T15:14:43.601Z,972.22
2023-05-05T15:15:43.487Z,972.25
2023-05-05T15:16:43.418Z,972.22
2023-05-05T15:17:43.462Z,972.29
2023-05-05T15:18:43.432Z,972.29
2023-05-05T15:19:43.392Z,972.25
2023-05-05T15:20:43.440Z,972.28
2023-05-05T15:21:43.381Z,972.26
2023-05-05T15:22:43.367Z,972.33
2023-05-05T15:23:43.342Z,972.39
2023-05-05T15:24:43.331Z,972.39
2023-05-05T15:26:18.734Z,972.48
2023-05-05T15:26:43.663Z,972.52
2023-05-05T15:27:46.806Z,972.54
2023-05-05T15:28:43.275Z,972.54
2023-05-05T15:29:43.288Z,972.55
2023-05-05T15:30:43.453Z,972.51
2023-05-05T15:31:43.244Z,972.42
2023-05-05T15:32:43.374Z,972.42
2023-05-05T15:33:43.219Z,972.41
2023-05-05T15:34:43.227Z,972.46
2023-05-05T15:35:43.242Z,972.53
2023-05-05T15:36:43.214Z,972.48
2023-05-05T15:37:43.195Z,972.61
2023-05-05T15:38:43.199Z,972.54
2023-05-05T15:39:43.155Z,972.56
2023-05-05T15:41:18.604Z,972.42
2023-05-05T15:41:43.340Z,972.22
2023-05-05T15:42:43.484Z,971.93
2023-05-05T15:43:43.137Z,971.78
2023-05-05T15:44:43.097Z,971.59
2023-05-05T15:45:43.084Z,971.64
2023-05-05T15:46:43.206Z,971.60
2023-05-05T15:47:43.138Z,971.65
2023-05-05T15:48:43.074Z,971.87
2023-05-05T15:49:43.082Z,972.13
2023-05-05T16:18:40.598Z,972.25
2023-05-05T16:19:41.791Z,972.27
2023-05-05T16:45:57.570Z,972.32
2023-05-05T16:46:58.218Z,972.23
2023-05-05T16:47:57.717Z,972.28
2023-05-05T16:48:57.356Z,972.26